createdAt,value
2023-04-12T00:00:11.880Z,0.30
2023-04-12T00:02:42.274Z,0.30
2023-04-12T00:05:11.634Z,0.33
2023-04-12T00:07:42.646Z,0.30
2023-04-12T00:10:11.666Z,0.33
2023-04-12T00:12:40.808Z,0.40
2023-04-12T00:15:10.512Z,0.40
2023-04-12T00:17:38.771Z,0.30
2023-04-12T00:20:12.202Z,0.40
2023-04-12T00:22:42.471Z,0.30
2023-04-12T00:25:11.480Z,0.30
2023-04-12T00:27:40.687Z,0.30
2023-04-12T00:30:10.246Z,3.53
2023-04-12T00:32:38.593Z,0.20
2023-04-12T00:35:08.199Z,0.30
2023-04-12T00:37:38.389Z,0.30
2023-04-12T00:40:13.099Z,0.47
2023-04-12T00:42:41.512Z,0.40
2023-04-12T00:45:10.896Z,0.33
2023-04-12T00:47:42.787Z,0.30
2023-04-12T00:50:12.932Z,1.07
2023-04-12T00:52:41.506Z,0.50
2023-04-12T00:55:11.894Z,0.30
2023-04-12T00:57:41.510Z,0.97
2023-04-12T01:00:13.413Z,0.30
2023-04-12T01:02:47.516Z,0.40
2023-04-12T01:05:22.752Z,0.50
2023-04-12T01:08:06.139Z,0.30
2023-04-12T01:10:49.581Z,0.30
2023-04-12T01:13:41.021Z,0.40
2023-04-12T01:16:17.370Z,0.30
2023-04-12T01:18:51.939Z,0.33
2023-04-12T01:21:32.765Z,0.40
2023-04-12T01:24:20.505Z,0.33
2023-04-12T01:26:52.131Z,0.50
2023-04-12T01:29:26.247Z,0.40
2023-04-12T01:32:01.532Z,0.50
2023-04-12T01:34:33.896Z,0.33
2023-04-12T01:37:04.915Z,0.50
2023-04-12T01:39:34.956Z,0.40
2023-04-12T01:42:03.258Z,0.40
2023-04-12T01:44:33.107Z,0.40
2023-04-12T01:47:01.685Z,0.70
2023-04-12T01:49:39.204Z,0.53
2023-04-12T01:52:13.878Z,0.37
2023-04-12T01:54:45.653Z,0.40
2023-04-12T01:57:16.233Z,0.50
2023-04-12T01:59:48.855Z,0.43
2023-04-12T02:02:18.839Z,0.50
2023-04-12T02:04:48.025Z,0.40
2023-04-12T02:07:18.793Z,0.43
2023-04-12T02:09:47.370Z,0.40
2023-04-12T02:12:16.024Z,0.40
2023-04-12T02:14:45.909Z,0.30
2023-04-12T02:17:14.600Z,0.40
2023-04-12T02:19:43.101Z,0.40
2023-04-12T02:22:11.588Z,0.40
2023-04-12T02:24:40.487Z,0.47
2023-04-12T02:27:08.987Z,0.50
2023-04-12T02:29:37.503Z,0.47
2023-04-12T02:32:07.579Z,0.80
2023-04-12T02:34:36.671Z,0.90
2023-04-12T02:37:07.230Z,0.40
2023-04-12T02:39:36.303Z,0.87
2023-04-12T02:42:04.904Z,0.80
2023-04-12T02:44:33.381Z,0.80
2023-04-12T02:47:02.054Z,0.50
2023-04-12T02:49:31.983Z,0.60
2023-04-12T02:52:02.371Z,0.50
2023-04-12T02:54:30.996Z,0.57
2023-04-12T02:56:59.500Z,0.40
2023-04-12T02:59:28.866Z,0.37
2023-04-12T03:01:57.470Z,0.63
2023-04-12T03:04:30.025Z,0.87
2023-04-12T03:07:00.095Z,0.50
2023-04-12T03:09:28.564Z,0.53
2023-04-12T03:11:57.036Z,0.60
2023-04-12T03:14:25.589Z,0.63
2023-04-12T03:16:54.170Z,0.50
2023-04-12T03:19:22.621Z,0.50
2023-04-12T03:21:51.150Z,0.40
2023-04-12T03:24:21.157Z,4.07
2023-04-12T03:26:50.094Z,0.30
2023-04-12T03:29:18.604Z,0.60
2023-04-12T03:31:47.078Z,0.60
2023-04-12T03:34:15.562Z,0.60
2023-04-12T03:36:46.467Z,0.67
2023-04-12T03:39:15.066Z,0.40
2023-04-12T03:41:44.977Z,0.63
2023-04-12T03:44:13.573Z,0.50
2023-04-12T03:46:42.313Z,0.50
2023-04-12T03:49:10.859Z,0.40
2023-04-12T03:51:42.841Z,0.70
2023-04-12T03:54:12.899Z,0.90
2023-04-12T03:56:42.478Z,0.57
2023-04-12T03:59:14.814Z,0.80
2023-04-12T04:01:43.931Z,0.40
2023-04-12T04:04:12.750Z,0.40
2023-04-12T04:06:41.798Z,0.67
2023-04-12T04:09:10.359Z,0.87
2023-04-12T04:11:38.841Z,1.00
2023-04-12T04:14:08.204Z,0.60
2023-04-12T04:16:38.274Z,0.60
2023-04-12T04:19:06.948Z,2.17
2023-04-12T04:21:35.500Z,0.37
2023-04-12T04:24:04.271Z,0.43
2023-04-12T04:26:34.180Z,0.40
2023-04-12T04:29:03.695Z,0.70
2023-04-12T04:31:34.551Z,0.30
2023-04-12T04:34:06.575Z,0.40
2023-04-12T04:36:36.558Z,0.60
2023-04-12T04:39:06.030Z,8.33
2023-04-12T04:41:39.174Z,16.90
2023-04-12T04:44:09.699Z,12.30
2023-04-12T04:46:38.681Z,5.37
2023-04-12T04:49:09.296Z,25.20
2023-04-12T04:51:37.804Z,24.10
2023-04-12T04:54:06.771Z,8.90
2023-04-12T04:56:35.327Z,2.57
2023-04-12T04:59:03.783Z,5.90
2023-04-12T05:01:35.935Z,6.17
2023-04-12T05:04:04.820Z,4.17
2023-04-12T05:06:34.848Z,13.33
2023-04-12T05:09:05.252Z,1.50
2023-04-12T05:11:33.738Z,0.47
2023-04-12T05:14:02.485Z,2.20
2023-04-12T05:16:31.052Z,1.53
2023-04-12T05:18:59.704Z,1.10
2023-04-12T05:21:28.778Z,2.27
2023-04-12T05:23:58.630Z,2.10
2023-04-12T05:26:27.562Z,0.40
2023-04-12T05:28:56.389Z,1.13
2023-04-12T05:31:25.365Z,1.07
2023-04-12T05:33:54.499Z,0.40
2023-04-12T05:36:23.139Z,0.40
2023-04-12T05:38:52.283Z,1.07
2023-04-12T05:41:22.194Z,0.50
2023-04-12T05:43:50.679Z,0.50
2023-04-12T05:46:19.206Z,0.80
2023-04-12T05:48:47.729Z,0.77
2023-04-12T05:51:16.182Z,0.80
2023-04-12T05:53:44.649Z,1.23
2023-04-12T05:56:13.158Z,0.47
2023-04-12T05:58:43.092Z,0.77
2023-04-12T06:01:11.822Z,0.70
2023-04-12T06:03:41.723Z,0.47
2023-04-12T06:06:10.847Z,1.03
2023-04-12T06:08:39.423Z,2.33
2023-04-12T06:11:08.256Z,0.60
2023-04-12T06:13:36.787Z,0.80
2023-04-12T06:16:07.369Z,1.70
2023-04-12T06:18:37.866Z,2.47
2023-04-12T06:21:06.783Z,3.90
2023-04-12T06:23:35.372Z,3.43
2023-04-12T06:26:03.964Z,5.27
2023-04-12T06:28:32.515Z,1.03
2023-04-12T06:31:01.003Z,1.40
2023-04-12T06:33:30.899Z,0.40
2023-04-12T06:36:00.483Z,4.53
2023-04-12T06:38:28.997Z,0.40
2023-04-12T06:40:57.798Z,0.63
2023-04-12T06:43:26.624Z,2.40
2023-04-12T06:45:56.916Z,2.30
2023-04-12T06:48:25.622Z,0.87
2023-04-12T06:50:55.530Z,1.33
2023-04-12T06:53:24.153Z,1.53
2023-04-12T06:55:53.760Z,0.77
2023-04-12T06:58:22.360Z,0.83
2023-04-12T07:00:51.054Z,0.50
2023-04-12T07:03:19.765Z,1.10
2023-04-12T07:05:48.490Z,1.03
2023-04-12T07:08:18.783Z,1.17
2023-04-12T07:10:47.233Z,0.30
2023-04-12T07:13:15.727Z,0.60
2023-04-12T07:15:45.151Z,0.30
2023-04-12T07:18:13.752Z,0.30
2023-04-12T07:20:42.406Z,0.67
2023-04-12T07:23:11.032Z,0.20
2023-04-12T07:25:40.887Z,0.30
2023-04-12T07:28:09.474Z,0.20
2023-04-12T07:30:39.722Z,0.47
2023-04-12T07:33:18.969Z,0.30
2023-04-12T07:35:48.049Z,0.90
2023-04-12T07:38:17.088Z,0.40
2023-04-12T07:40:49.927Z,0.40
2023-04-12T07:43:18.819Z,0.50
2023-04-12T07:45:47.432Z,0.53
2023-04-12T07:48:16.503Z,0.40
2023-04-12T07:50:45.283Z,0.47
2023-04-12T07:53:21.359Z,1.03
2023-04-12T07:55:52.143Z,0.20
2023-04-12T07:58:22.279Z,0.37
2023-04-12T08:00:51.258Z,0.33
2023-04-12T08:03:20.353Z,0.40
2023-04-12T08:05:53.329Z,0.27
2023-04-12T08:08:22.667Z,0.53
2023-04-12T08:10:53.479Z,0.50
2023-04-12T08:13:22.121Z,0.63
2023-04-12T08:15:50.662Z,1.10
2023-04-12T08:18:19.433Z,0.50
2023-04-12T08:20:49.162Z,1.17
2023-04-12T08:23:17.863Z,0.60
2023-04-12T08:25:46.683Z,0.80
2023-04-12T08:28:16.735Z,0.77
2023-04-12T08:30:45.436Z,0.50
2023-04-12T08:33:14.170Z,0.30
2023-04-12T08:35:42.861Z,0.50
2023-04-12T08:38:11.456Z,0.30
2023-04-12T08:40:43.203Z,0.30
2023-04-12T08:43:16.419Z,0.67
2023-04-12T08:45:45.053Z,0.50
2023-04-12T08:48:14.491Z,0.50
2023-04-12T08:50:44.624Z,0.60
2023-04-12T08:53:13.404Z,0.47
2023-04-12T08:55:44.696Z,0.20
2023-04-12T08:58:17.178Z,0.60
2023-04-12T09:00:46.725Z,0.50
2023-04-12T09:03:15.542Z,0.57
2023-04-12T09:05:44.319Z,0.30
2023-04-12T09:08:13.274Z,0.67
2023-04-12T09:10:42.706Z,0.80
2023-04-12T09:13:11.399Z,0.30
2023-04-12T09:15:55.352Z,0.40
2023-04-12T09:18:24.307Z,0.50
2023-04-12T09:21:06.885Z,0.30
2023-04-12T09:23:37.267Z,0.23
2023-04-12T09:26:06.864Z,0.87
2023-04-12T09:28:35.352Z,0.53
2023-04-12T09:31:05.597Z,0.63
2023-04-12T09:33:39.103Z,0.60
2023-04-12T09:36:13.675Z,0.30
2023-04-12T09:38:43.904Z,0.50
2023-04-12T09:41:26.383Z,0.60
2023-04-12T09:43:56.034Z,0.60
2023-04-12T09:46:26.301Z,0.50
2023-04-12T09:48:56.372Z,0.40
2023-04-12T09:51:29.890Z,0.57
2023-04-12T09:54:02.210Z,0.40
2023-04-12T09:56:32.372Z,0.47
2023-04-12T09:59:03.971Z,0.47
2023-04-12T10:01:37.547Z,0.20
2023-04-12T10:04:09.669Z,0.30
2023-04-12T10:06:38.599Z,0.20
2023-04-12T10:09:08.678Z,0.20
2023-04-12T10:11:40.490Z,0.40
2023-04-12T10:14:09.739Z,0.30
2023-04-12T10:16:43.309Z,0.20
2023-04-12T10:19:13.488Z,0.40
2023-04-12T10:21:42.452Z,0.83
2023-04-12T10:24:11.965Z,0.27
2023-04-12T10:26:44.267Z,0.30
2023-04-12T10:29:29.816Z,0.30
2023-04-12T10:32:19.677Z,0.30
2023-04-12T10:34:53.980Z,0.30
2023-04-12T10:37:22.906Z,0.33
2023-04-12T10:39:55.181Z,0.60
2023-04-12T10:42:27.001Z,0.47
2023-04-12T10:44:58.741Z,1.30
2023-04-12T10:48:03.844Z,0.40
2023-04-12T10:50:35.188Z,0.50
2023-04-12T10:53:28.684Z,0.60
2023-04-12T10:55:59.473Z,0.40
2023-04-12T10:58:59.804Z,0.30
2023-04-12T11:01:29.581Z,1.90
2023-04-12T11:04:14.869Z,0.63
2023-04-12T11:06:59.603Z,0.63
2023-04-12T11:09:30.141Z,0.30
2023-04-12T11:12:00.406Z,0.30
2023-04-12T11:14:45.149Z,0.70
2023-04-12T11:17:24.752Z,0.57
2023-04-12T11:19:59.914Z,0.97
2023-04-12T11:22:30.837Z,0.27
2023-04-12T11:25:01.474Z,1.50
2023-04-12T11:27:31.782Z,0.20
2023-04-12T11:30:02.584Z,0.80
2023-04-12T11:32:32.042Z,0.47
2023-04-12T11:35:02.274Z,0.37
2023-04-12T11:37:32.497Z,0.27
2023-04-12T11:40:01.497Z,1.37
2023-04-12T11:42:30.416Z,0.67
2023-04-12T11:45:04.440Z,2.13
2023-04-12T11:47:43.529Z,2.23
2023-04-12T11:50:13.713Z,0.97
2023-04-12T11:52:42.358Z,1.33
2023-04-12T11:55:11.915Z,1.20
2023-04-12T11:57:40.830Z,1.80
2023-04-12T12:00:10.905Z,0.97
2023-04-12T12:02:46.633Z,0.73
2023-04-12T12:05:19.788Z,0.50
2023-04-12T12:07:48.564Z,0.17
2023-04-12T12:10:31.725Z,1.60
2023-04-12T12:13:12.533Z,0.40
2023-04-12T12:15:45.079Z,0.30
2023-04-12T12:18:13.783Z,0.37
2023-04-12T12:20:48.779Z,0.47
2023-04-12T12:23:30.509Z,1.10
2023-04-12T12:26:14.413Z,0.40
2023-04-12T12:28:50.145Z,0.30
2023-04-12T12:31:25.338Z,0.70
2023-04-12T12:33:57.315Z,0.40
2023-04-12T12:36:33.352Z,0.57
2023-04-12T12:39:08.032Z,0.20
2023-04-12T12:41:36.988Z,0.87
2023-04-12T12:44:06.782Z,0.13
2023-04-12T12:49:07.109Z,0.30
2023-04-12T12:51:37.052Z,0.30
2023-04-12T12:54:06.043Z,0.83
2023-04-12T12:56:35.538Z,0.33
2023-04-12T12:59:04.233Z,0.30
2023-04-12T13:01:32.796Z,0.40
2023-04-12T13:04:01.715Z,0.30
2023-04-12T13:06:31.990Z,0.10
2023-04-12T13:09:02.045Z,0.47
2023-04-12T13:11:31.089Z,0.20
2023-04-12T13:13:59.810Z,0.97
2023-04-12T13:16:28.719Z,0.33
2023-04-12T13:18:57.417Z,0.40
2023-04-12T13:21:27.274Z,0.30
2023-04-12T13:23:55.884Z,0.40
2023-04-12T13:26:26.044Z,0.50
2023-04-12T13:28:54.671Z,1.00
2023-04-12T13:31:23.322Z,0.43
2023-04-12T13:33:52.253Z,0.20
2023-04-12T13:36:20.800Z,1.17
2023-04-12T13:38:49.282Z,2.63
2023-04-12T13:41:19.049Z,0.37
2023-04-12T13:43:49.239Z,0.40
2023-04-12T13:46:17.792Z,0.47
2023-04-12T13:48:46.286Z,1.03
2023-04-12T13:51:14.778Z,0.80
2023-04-12T13:53:43.215Z,0.10
2023-04-12T13:56:12.045Z,0.20
2023-04-12T13:58:40.608Z,1.00
2023-04-12T14:01:10.958Z,0.83
2023-04-12T14:03:39.756Z,0.27
2023-04-12T14:06:09.556Z,0.60
2023-04-12T14:08:38.074Z,0.20
2023-04-12T14:11:07.415Z,0.80
2023-04-12T14:13:35.992Z,0.20
2023-04-12T14:16:04.683Z,0.20
2023-04-12T14:18:34.663Z,0.70
2023-04-12T14:21:03.994Z,0.30
2023-04-12T14:23:32.550Z,0.30
2023-04-12T14:26:01.045Z,0.43
2023-04-12T14:28:30.910Z,0.83
2023-04-12T14:31:00.734Z,0.30
2023-04-12T14:33:29.404Z,0.27
2023-04-12T14:36:04.745Z,0.60
2023-04-12T14:38:33.304Z,0.40
2023-04-12T14:41:07.887Z,0.50
2023-04-12T14:43:36.431Z,1.80
2023-04-12T14:46:05.114Z,0.57
2023-04-12T14:48:33.703Z,1.07
2023-04-12T14:51:03.845Z,0.33
2023-04-12T14:53:32.620Z,0.20
2023-04-12T14:56:02.478Z,0.20
2023-04-12T14:58:31.466Z,0.10
2023-04-12T15:01:01.020Z,0.40
2023-04-12T15:03:33.278Z,0.37
2023-04-12T15:06:03.438Z,0.30
2023-04-12T15:08:31.926Z,0.30
2023-04-12T15:11:00.576Z,0.70
2023-04-12T15:13:33.079Z,0.90
2023-04-12T15:16:03.256Z,0.30
2023-04-12T15:18:31.937Z,0.53
2023-04-12T15:21:03.121Z,0.77
2023-04-12T15:23:33.414Z,0.30
2023-04-12T15:26:03.480Z,0.77
2023-04-12T15:28:34.187Z,0.47
2023-04-12T15:31:03.172Z,0.20
2023-04-12T15:33:34.599Z,0.30
2023-04-12T15:36:05.515Z,0.40
2023-04-12T15:38:41.125Z,0.30
2023-04-12T15:41:10.569Z,0.20
2023-04-12T15:43:39.386Z,0.60
2023-04-12T15:46:08.452Z,0.37
2023-04-12T15:48:38.771Z,0.60
2023-04-12T15:51:08.963Z,0.97
2023-04-12T15:53:37.544Z,0.30
2023-04-12T15:56:06.722Z,0.83
2023-04-12T15:58:35.343Z,2.17
2023-04-12T16:01:03.838Z,0.60
2023-04-12T16:03:32.607Z,0.30
2023-04-12T16:06:01.710Z,0.30
2023-04-12T16:08:31.784Z,0.30
2023-04-12T16:11:00.285Z,0.47
2023-04-12T16:13:28.837Z,0.40
2023-04-12T16:15:57.408Z,0.33
2023-04-12T16:18:26.003Z,0.90
2023-04-12T16:20:54.990Z,0.30
2023-04-12T16:23:23.517Z,0.30
2023-04-12T16:25:56.252Z,0.40
2023-04-12T16:28:24.777Z,1.33
2023-04-12T16:30:53.318Z,2.57
2023-04-12T16:33:21.876Z,0.57
2023-04-12T16:35:50.431Z,0.30
2023-04-12T16:38:19.059Z,0.40
2023-04-12T16:40:47.778Z,0.50
2023-04-12T16:43:17.789Z,0.90
2023-04-12T16:45:48.514Z,0.63
2023-04-12T16:48:17.082Z,3.03
2023-04-12T16:50:47.305Z,0.47
2023-04-12T16:53:16.723Z,0.37
2023-04-12T16:55:47.328Z,0.30
2023-04-12T16:58:18.221Z,0.30
2023-04-12T17:00:46.788Z,0.20
2023-04-12T17:03:15.773Z,1.20
2023-04-12T17:05:49.015Z,0.50
2023-04-12T17:08:17.855Z,0.60
2023-04-12T17:10:46.362Z,0.83
2023-04-12T17:13:20.216Z,4.37
2023-04-12T17:15:49.178Z,2.77
2023-04-12T17:18:17.794Z,0.80
2023-04-12T17:20:47.139Z,0.43
2023-04-12T17:23:16.817Z,1.80
2023-04-12T17:25:45.680Z,11.53
2023-04-12T17:28:14.409Z,2.37
2023-04-12T17:30:44.764Z,11.47
2023-04-12T17:33:13.268Z,9.07
2023-04-12T17:35:42.016Z,2.83
2023-04-12T17:38:10.773Z,1.07
2023-04-12T17:40:39.363Z,1.70
2023-04-12T17:43:08.116Z,0.30
2023-04-12T17:45:36.648Z,4.30
2023-04-12T17:48:07.296Z,0.50
2023-04-12T17:50:35.950Z,0.77
2023-04-12T17:53:04.531Z,0.40
2023-04-12T17:55:33.128Z,0.60
2023-04-12T17:58:01.836Z,0.50
2023-04-12T18:00:30.549Z,0.20
2023-04-12T18:02:59.486Z,0.40
2023-04-12T18:05:29.504Z,0.30
2023-04-12T18:07:58.178Z,0.37
2023-04-12T18:10:27.365Z,0.70
2023-04-12T18:12:55.969Z,0.30
2023-04-12T18:15:24.588Z,0.50
2023-04-12T18:17:53.274Z,0.50
2023-04-12T18:20:22.087Z,0.60
2023-04-12T18:22:52.026Z,0.37
2023-04-12T18:25:20.901Z,1.13
2023-04-12T18:27:49.647Z,2.10
2023-04-12T18:30:19.379Z,0.50
2023-04-12T18:32:48.557Z,0.80
2023-04-12T18:35:17.497Z,0.40
2023-04-12T18:37:46.808Z,0.30
2023-04-12T18:40:18.156Z,0.40
2023-04-12T18:42:46.790Z,0.40
2023-04-12T18:45:15.905Z,0.40
2023-04-12T18:47:44.760Z,0.60
2023-04-12T18:50:14.032Z,0.43
2023-04-12T18:52:42.599Z,1.60
2023-04-12T18:55:11.683Z,0.20
2023-04-12T18:57:41.620Z,0.83
2023-04-12T19:00:14.265Z,0.50
2023-04-12T19:02:43.303Z,0.63
2023-04-12T19:05:15.227Z,1.03
2023-04-12T19:07:44.497Z,8.23
2023-04-12T19:10:13.644Z,8.40
2023-04-12T19:12:43.784Z,3.63
2023-04-12T19:15:13.037Z,1.73
2023-04-12T19:17:41.732Z,3.23
2023-04-12T19:20:10.702Z,2.60
2023-04-12T19:22:39.242Z,0.97
2023-04-12T19:25:10.452Z,2.63
2023-04-12T19:27:42.115Z,1.73
2023-04-12T19:30:12.911Z,4.20
2023-04-12T19:32:42.438Z,0.63
2023-04-12T19:35:11.589Z,0.90
2023-04-12T19:37:40.319Z,0.60
2023-04-12T19:40:11.808Z,0.40
2023-04-12T19:42:41.456Z,0.50
2023-04-12T19:45:11.744Z,1.60
2023-04-12T19:47:44.651Z,0.97
2023-04-12T19:50:14.938Z,1.07
2023-04-12T19:52:43.890Z,0.80
2023-04-12T19:55:13.069Z,3.50
2023-04-12T19:57:41.735Z,1.43
2023-04-12T20:00:19.488Z,0.50
2023-04-12T20:02:48.881Z,4.33
2023-04-12T20:05:17.852Z,0.57
2023-04-12T20:07:46.637Z,0.60
2023-04-12T20:10:15.765Z,0.50
2023-04-12T20:12:44.400Z,2.30
2023-04-12T20:15:14.625Z,0.80
2023-04-12T20:17:44.735Z,0.60
2023-04-12T20:20:15.370Z,0.30
2023-04-12T20:22:46.764Z,0.60
2023-04-12T20:25:16.289Z,0.50
2023-04-12T20:27:51.543Z,0.33
2023-04-12T20:30:22.923Z,0.20
2023-04-12T20:32:54.611Z,0.33
2023-04-12T20:35:23.664Z,2.20
2023-04-12T20:37:52.849Z,0.37
2023-04-12T20:40:23.341Z,1.13
2023-04-12T20:42:52.137Z,0.40
2023-04-12T20:45:23.474Z,0.43
2023-04-12T20:47:52.620Z,0.27
2023-04-12T20:50:22.818Z,0.33
2023-04-12T20:52:52.505Z,0.77
2023-04-12T20:55:22.763Z,0.23
2023-04-12T20:57:55.719Z,1.07
2023-04-12T21:00:25.798Z,0.77
2023-04-12T21:02:54.944Z,0.70
2023-04-12T21:05:24.259Z,0.60
2023-04-12T21:07:53.034Z,0.40
2023-04-12T21:10:22.378Z,1.43
2023-04-12T21:12:51.690Z,0.77
2023-04-12T21:15:22.554Z,0.97
2023-04-12T21:17:52.847Z,1.13
2023-04-12T21:20:22.374Z,0.60
2023-04-12T21:25:21.783Z,1.03
2023-04-12T21:27:51.357Z,0.93
2023-04-12T21:30:20.230Z,1.03
2023-04-12T21:32:49.362Z,0.83
2023-04-12T21:35:20.974Z,0.90
2023-04-12T21:37:49.892Z,2.53
2023-04-12T21:40:18.448Z,0.50
2023-04-12T21:42:47.001Z,0.50
2023-04-12T21:45:15.528Z,0.60
2023-04-12T21:47:44.723Z,0.43
2023-04-12T21:50:14.587Z,0.67
2023-04-12T21:52:45.517Z,0.57
2023-04-12T21:55:14.160Z,0.80
2023-04-12T21:57:42.637Z,0.57
2023-04-12T22:00:12.350Z,0.40
2023-04-12T22:02:41.636Z,0.57
2023-04-12T22:05:11.132Z,0.67
2023-04-12T22:07:41.624Z,0.50
2023-04-12T22:10:12.552Z,0.73
2023-04-12T22:12:41.363Z,1.20
2023-04-12T22:15:11.724Z,0.67
2023-04-12T22:17:41.017Z,0.87
2023-04-12T22:20:11.036Z,0.57
2023-04-12T22:22:39.862Z,1.23
2023-04-12T22:25:12.741Z,0.53
2023-04-12T22:27:42.070Z,1.60
2023-04-12T22:30:11.485Z,0.30
2023-04-12T22:32:40.231Z,0.60
2023-04-12T22:35:10.062Z,0.90
2023-04-12T22:37:41.122Z,0.97
2023-04-12T22:40:13.386Z,0.73
2023-04-12T22:42:46.894Z,1.63
2023-04-12T22:45:15.938Z,0.67
2023-04-12T22:47:45.101Z,0.40
2023-04-12T22:50:14.212Z,0.60
2023-04-12T22:52:43.312Z,0.47
2023-04-12T22:55:16.753Z,0.50
2023-04-12T22:57:45.744Z,0.53
2023-04-12T23:00:18.012Z,0.50
2023-04-12T23:02:48.548Z,1.10
2023-04-12T23:05:17.485Z,0.50
2023-04-12T23:07:46.298Z,1.07
2023-04-12T23:10:16.545Z,2.50
2023-04-12T23:12:49.100Z,0.40
2023-04-12T23:15:17.977Z,0.70
2023-04-12T23:17:46.499Z,0.67
2023-04-12T23:20:15.352Z,0.50
2023-04-12T23:22:57.516Z,0.80
2023-04-12T23:25:39.314Z,0.80
2023-04-12T23:28:13.230Z,0.73
2023-04-12T23:30:44.649Z,0.60
2023-04-12T23:33:13.198Z,1.47
2023-04-12T23:35:42.506Z,0.50
2023-04-12T23:38:15.800Z,0.63
2023-04-12T23:40:47.584Z,2.07
2023-04-12T23:43:16.250Z,0.90
2023-04-12T23:45:44.968Z,0.77
2023-04-12T23:48:13.667Z,3.20
2023-04-12T23:50:42.683Z,0.73
2023-04-12T23:53:11.617Z,0.67
2023-04-12T23:55:41.097Z,0.50
2023-04-12T23:58:11.418Z,0.73
